sensor_id;sensor_type;location;lat;lon;timestamp;P1;durP1;ratioP1;P2;durP2;ratioP2
69621;SDS011;56841;55.964;37.674;2023-04-01T00:00:47;18.13;;;6.28;;
69621;SDS011;56841;55.964;37.674;2023-04-01T00:03:13;17.50;;;6.47;;
69621;SDS011;56841;55.964;37.674;2023-04-01T00:05:39;18.83;;;7.07;;
69621;SDS011;56841;55.964;37.674;2023-04-01T00:08:05;20.55;;;7.22;;
69621;SDS011;56841;55.964;37.674;2023-04-01T00:10:31;19.73;;;7.57;;
69621;SDS011;56841;55.964;37.674;2023-04-01T00:12:56;18.70;;;6.60;;
69621;SDS011;56841;55.964;37.674;2023-04-01T00:15:22;19.33;;;6.68;;
69621;SDS011;56841;55.964;37.674;2023-04-01T00:17:48;18.30;;;6.72;;
69621;SDS011;56841;55.964;37.674;2023-04-01T00:20:14;17.30;;;6.45;;
69621;SDS011;56841;55.964;37.674;2023-04-01T00:22:40;16.30;;;6.00;;
69621;SDS011;56841;55.964;37.674;2023-04-01T00:25:06;16.02;;;6.18;;
69621;SDS011;56841;55.964;37.674;2023-04-01T00:27:32;19.10;;;6.20;;
69621;SDS011;56841;55.964;37.674;2023-04-01T00:29:58;17.75;;;5.60;;
69621;SDS011;56841;55.964;37.674;2023-04-01T00:32:24;16.00;;;6.40;;
69621;SDS011;56841;55.964;37.674;2023-04-01T00:34:51;19.73;;;6.95;;
69621;SDS011;56841;55.964;37.674;2023-04-01T00:37:18;15.27;;;5.72;;
69621;SDS011;56841;55.964;37.674;2023-04-01T00:39:46;18.50;;;6.57;;
69621;SDS011;56841;55.964;37.674;2023-04-01T00:42:12;19.42;;;6.68;;
69621;SDS011;56841;55.964;37.674;2023-04-01T00:44:39;16.13;;;6.10;;
69621;SDS011;56841;55.964;37.674;2023-04-01T00:47:05;17.77;;;6.18;;
69621;SDS011;56841;55.964;37.674;2023-04-01T00:49:40;16.42;;;6.15;;
69621;SDS011;56841;55.964;37.674;2023-04-01T00:52:10;15.82;;;5.82;;
69621;SDS011;56841;55.964;37.674;2023-04-01T00:54:38;15.25;;;5.25;;
69621;SDS011;56841;55.964;37.674;2023-04-01T00:57:21;14.27;;;5.47;;
69621;SDS011;56841;55.964;37.674;2023-04-01T00:59:53;15.15;;;4.97;;
69621;SDS011;56841;55.964;37.674;2023-04-01T01:02:20;13.35;;;4.97;;
69621;SDS011;56841;55.964;37.674;2023-04-01T01:04:46;15.52;;;5.38;;
69621;SDS011;56841;55.964;37.674;2023-04-01T01:12:33;14.40;;;5.55;;
69621;SDS011;56841;55.964;37.674;2023-04-01T01:17:48;17.50;;;5.80;;
69621;SDS011;56841;55.964;37.674;2023-04-01T01:23:23;14.93;;;6.03;;
69621;SDS011;56841;55.964;37.674;2023-04-01T01:29:03;14.10;;;4.88;;
69621;SDS011;56841;55.964;37.674;2023-04-01T01:37:13;17.20;;;5.95;;
69621;SDS011;56841;55.964;37.674;2023-04-01T01:39:42;16.42;;;5.63;;
69621;SDS011;56841;55.964;37.674;2023-04-01T01:42:11;15.48;;;5.57;;
69621;SDS011;56841;55.964;37.674;2023-04-01T01:44:40;13.90;;;5.32;;
69621;SDS011;56841;55.964;37.674;2023-04-01T01:47:09;15.65;;;5.57;;
69621;SDS011;56841;55.964;37.674;2023-04-01T01:49:37;16.45;;;5.72;;
69621;SDS011;56841;55.964;37.674;2023-04-01T01:52:05;14.45;;;5.75;;
69621;SDS011;56841;55.964;37.674;2023-04-01T01:54:31;14.93;;;5.80;;
69621;SDS011;56841;55.964;37.674;2023-04-01T01:57:01;15.95;;;5.50;;
69621;SDS011;56841;55.964;37.674;2023-04-01T01:59:37;15.82;;;5.55;;
69621;SDS011;56841;55.964;37.674;2023-04-01T02:02:04;17.88;;;6.45;;
69621;SDS011;56841;55.964;37.674;2023-04-01T02:04:34;19.42;;;6.57;;
69621;SDS011;56841;55.964;37.674;2023-04-01T02:07:05;20.13;;;6.82;;
69621;SDS011;56841;55.964;37.674;2023-04-01T02:09:34;18.52;;;6.30;;
69621;SDS011;56841;55.964;37.674;2023-04-01T02:12:02;18.88;;;6.63;;
69621;SDS011;56841;55.964;37.674;2023-04-01T02:14:52;21.15;;;6.95;;
69621;SDS011;56841;55.964;37.674;2023-04-01T02:17:24;20.80;;;6.65;;
69621;SDS011;56841;55.964;37.674;2023-04-01T02:20:02;21.48;;;7.35;;
69621;SDS011;56841;55.964;37.674;2023-04-01T02:22:34;21.35;;;7.68;;
69621;SDS011;56841;55.964;37.674;2023-04-01T02:25:08;20.33;;;7.03;;
69621;SDS011;56841;55.964;37.674;2023-04-01T02:27:38;19.20;;;7.35;;
69621;SDS011;56841;55.964;37.674;2023-04-01T02:30:05;19.38;;;7.22;;
69621;SDS011;56841;55.964;37.674;2023-04-01T02:32:33;19.23;;;6.70;;
69621;SDS011;56841;55.964;37.674;2023-04-01T02:35:00;17.65;;;6.97;;
69621;SDS011;56841;55.964;37.674;2023-04-01T02:37:31;15.30;;;6.05;;
69621;SDS011;56841;55.964;37.674;2023-04-01T02:40:04;14.10;;;4.85;;
69621;SDS011;56841;55.964;37.674;2023-04-01T02:42:35;12.70;;;4.78;;
69621;SDS011;56841;55.964;37.674;2023-04-01T02:45:00;15.75;;;5.50;;
69621;SDS011;56841;55.964;37.674;2023-04-01T02:47:28;13.23;;;5.15;;
69621;SDS011;56841;55.964;37.674;2023-04-01T02:49:54;14.63;;;5.47;;
69621;SDS011;56841;55.964;37.674;2023-04-01T02:52:27;15.45;;;5.10;;
69621;SDS011;56841;55.964;37.674;2023-04-01T02:54:56;18.23;;;6.00;;
69621;SDS011;56841;55.964;37.674;2023-04-01T02:57:22;16.50;;;5.90;;
69621;SDS011;56841;55.964;37.674;2023-04-01T02:59:49;17.23;;;5.78;;
69621;SDS011;56841;55.964;37.674;2023-04-01T03:02:15;17.98;;;6.20;;
69621;SDS011;56841;55.964;37.674;2023-04-01T03:04:41;15.02;;;5.60;;
69621;SDS011;56841;55.964;37.674;2023-04-01T03:07:07;16.75;;;5.93;;
69621;SDS011;56841;55.964;37.674;2023-04-01T03:09:35;20.65;;;6.15;;
69621;SDS011;56841;55.964;37.674;2023-04-01T03:12:02;18.30;;;5.55;;
69621;SDS011;56841;55.964;37.674;2023-04-01T03:14:31;16.13;;;5.80;;
69621;SDS011;56841;55.964;37.674;2023-04-01T03:16:57;15.68;;;5.45;;
69621;SDS011;56841;55.964;37.674;2023-04-01T03:19:23;17.02;;;5.68;;
69621;SDS011;56841;55.964;37.674;2023-04-01T03:21:49;16.60;;;5.95;;
69621;SDS011;56841;55.964;37.674;2023-04-01T03:24:15;16.08;;;5.53;;
69621;SDS011;56841;55.964;37.674;2023-04-01T03:26:41;14.68;;;5.30;;
69621;SDS011;56841;55.964;37.674;2023-04-01T03:29:07;17.95;;;6.40;;
69621;SDS011;56841;55.964;37.674;2023-04-01T03:31:32;16.27;;;5.65;;
69621;SDS011;56841;55.964;37.674;2023-04-01T03:33:59;16.23;;;5.88;;
69621;SDS011;56841;55.964;37.674;2023-04-01T03:36:26;14.32;;;5.63;;
69621;SDS011;56841;55.964;37.674;2023-04-01T03:38:52;16.10;;;5.97;;
69621;SDS011;56841;55.964;37.674;2023-04-01T03:43:51;14.10;;;5.45;;
69621;SDS011;56841;55.964;37.674;2023-04-01T03:46:19;15.68;;;5.80;;
69621;SDS011;56841;55.964;37.674;2023-04-01T03:48:46;15.93;;;5.97;;
69621;SDS011;56841;55.964;37.674;2023-04-01T03:51:11;17.27;;;5.95;;
69621;SDS011;56841;55.964;37.674;2023-04-01T03:53:37;15.35;;;5.80;;
69621;SDS011;56841;55.964;37.674;2023-04-01T03:56:05;17.33;;;6.32;;
69621;SDS011;56841;55.964;37.674;2023-04-01T03:58:34;15.75;;;5.75;;
69621;SDS011;56841;55.964;37.674;2023-04-01T04:01:01;15.55;;;5.97;;
69621;SDS011;56841;55.964;37.674;2023-04-01T04:03:27;14.13;;;5.53;;
69621;SDS011;56841;55.964;37.674;2023-04-01T04:05:53;14.68;;;5.63;;
69621;SDS011;56841;55.964;37.674;2023-04-01T04:08:19;14.02;;;5.78;;
69621;SDS011;56841;55.964;37.674;2023-04-01T04:10:47;15.68;;;5.78;;
69621;SDS011;56841;55.964;37.674;2023-04-01T04:13:13;15.45;;;6.18;;
69621;SDS011;56841;55.964;37.674;2023-04-01T04:15:46;17.30;;;6.20;;
69621;SDS011;56841;55.964;37.674;2023-04-01T04:18:12;17.38;;;6.60;;
69621;SDS011;56841;55.964;37.674;2023-04-01T04:20:43;18.50;;;6.53;;
69621;SDS011;56841;55.964;37.674;2023-04-01T04:23:14;18.83;;;6.57;;
69621;SDS011;56841;55.964;37.674;2023-04-01T04:25:40;19.15;;;6.55;;
69621;SDS011;56841;55.964;37.674;2023-04-01T04:28:06;19.15;;;7.07;;
69621;SDS011;56841;55.964;37.674;2023-04-01T04:30:31;18.95;;;7.07;;
69621;SDS011;56841;55.964;37.674;2023-04-01T04:32:57;19.42;;;6.68;;
69621;SDS011;56841;55.964;37.674;2023-04-01T04:35:23;20.20;;;7.25;;
69621;SDS011;56841;55.964;37.674;2023-04-01T04:37:49;17.60;;;6.93;;
69621;SDS011;56841;55.964;37.674;2023-04-01T04:40:15;20.80;;;7.05;;
69621;SDS011;56841;55.964;37.674;2023-04-01T04:42:41;19.70;;;7.10;;
69621;SDS011;56841;55.964;37.674;2023-04-01T04:45:11;19.20;;;7.80;;
69621;SDS011;56841;55.964;37.674;2023-04-01T04:47:42;18.77;;;6.90;;
69621;SDS011;56841;55.964;37.674;2023-04-01T04:50:08;17.45;;;6.93;;
69621;SDS011;56841;55.964;37.674;2023-04-01T04:52:36;18.40;;;7.20;;
69621;SDS011;56841;55.964;37.674;2023-04-01T04:55:02;21.25;;;7.45;;
69621;SDS011;56841;55.964;37.674;2023-04-01T04:57:32;22.52;;;7.90;;
69621;SDS011;56841;55.964;37.674;2023-04-01T04:59:57;22.48;;;8.27;;
69621;SDS011;56841;55.964;37.674;2023-04-01T05:02:55;21.58;;;7.30;;
69621;SDS011;56841;55.964;37.674;2023-04-01T05:05:21;20.92;;;8.57;;
69621;SDS011;56841;55.964;37.674;2023-04-01T05:07:47;22.08;;;8.77;;
69621;SDS011;56841;55.964;37.674;2023-04-01T05:10:13;25.83;;;8.90;;
69621;SDS011;56841;55.964;37.674;2023-04-01T05:12:39;20.90;;;7.45;;
69621;SDS011;56841;55.964;37.674;2023-04-01T05:15:07;23.60;;;8.35;;
69621;SDS011;56841;55.964;37.674;2023-04-01T05:17:34;23.33;;;9.23;;
69621;SDS011;56841;55.964;37.674;2023-04-01T05:20:02;22.35;;;9.23;;
69621;SDS011;56841;55.964;37.674;2023-04-01T05:22:29;24.25;;;8.65;;
69621;SDS011;56841;55.964;37.674;2023-04-01T05:24:55;25.10;;;8.88;;
69621;SDS011;56841;55.964;37.674;2023-04-01T05:27:25;23.80;;;8.10;;
69621;SDS011;56841;55.964;37.674;2023-04-01T05:29:50;24.98;;;8.43;;
69621;SDS011;56841;55.964;37.674;2023-04-01T05:32:39;24.67;;;8.32;;
69621;SDS011;56841;55.964;37.674;2023-04-01T05:35:06;25.15;;;8.00;;
69621;SDS011;56841;55.964;37.674;2023-04-01T05:37:35;27.08;;;8.27;;
69621;SDS011;56841;55.964;37.674;2023-04-01T05:40:03;24.02;;;8.15;;
69621;SDS011;56841;55.964;37.674;2023-04-01T05:42:30;22.58;;;8.43;;
69621;SDS011;56841;55.964;37.674;2023-04-01T05:44:56;25.02;;;8.73;;
69621;SDS011;56841;55.964;37.674;2023-04-01T05:47:40;27.83;;;9.00;;
69621;SDS011;56841;55.964;37.674;2023-04-01T05:50:08;29.33;;;10.60;;
69621;SDS011;56841;55.964;37.674;2023-04-01T05:52:36;29.48;;;10.57;;
69621;SDS011;56841;55.964;37.674;2023-04-01T05:55:03;24.90;;;9.13;;
69621;SDS011;56841;55.964;37.674;2023-04-01T05:57:30;23.17;;;7.45;;
69621;SDS011;56841;55.964;37.674;2023-04-01T05:59:56;21.17;;;7.70;;
69621;SDS011;56841;55.964;37.674;2023-04-01T06:02:22;23.48;;;7.90;;
69621;SDS011;56841;55.964;37.674;2023-04-01T06:05:02;22.45;;;8.25;;
69621;SDS011;56841;55.964;37.674;2023-04-01T06:07:37;24.25;;;9.02;;
69621;SDS011;56841;55.964;37.674;2023-04-01T06:10:08;27.42;;;9.68;;
69621;SDS011;56841;55.964;37.674;2023-04-01T06:33:55;24.45;;;9.32;;
69621;SDS011;56841;55.964;37.674;2023-04-01T06:37:03;22.13;;;7.88;;
69621;SDS011;56841;55.964;37.674;2023-04-01T06:42:48;21.80;;;9.07;;
69621;SDS011;56841;55.964;37.674;2023-04-01T06:45:46;16.00;;;6.10;;
69621;SDS011;56841;55.964;37.674;2023-04-01T06:49:07;14.57;;;6.15;;
69621;SDS011;56841;55.964;37.674;2023-04-01T06:55:44;14.15;;;4.35;;
69621;SDS011;56841;55.964;37.674;2023-04-01T06:58:23;18.63;;;6.80;;
69621;SDS011;56841;55.964;37.674;2023-04-01T07:00:54;18.35;;;6.85;;
69621;SDS011;56841;55.964;37.674;2023-04-01T07:03:44;20.65;;;7.35;;
69621;SDS011;56841;55.964;37.674;2023-04-01T07:06:27;15.25;;;6.13;;
69621;SDS011;56841;55.964;37.674;2023-04-01T07:09:02;16.35;;;5.78;;
69621;SDS011;56841;55.964;37.674;2023-04-01T07:11:59;16.90;;;6.88;;
69621;SDS011;56841;55.964;37.674;2023-04-01T07:14:54;12.02;;;4.53;;
69621;SDS011;56841;55.964;37.674;2023-04-01T07:17:28;10.90;;;4.63;;
69621;SDS011;56841;55.964;37.674;2023-04-01T07:20:05;12.43;;;4.78;;
69621;SDS011;56841;55.964;37.674;2023-04-01T07:22:46;10.75;;;4.22;;
69621;SDS011;56841;55.964;37.674;2023-04-01T07:25:39;14.02;;;5.20;;
69621;SDS011;56841;55.964;37.674;2023-04-01T07:28:32;9.25;;;3.58;;
69621;SDS011;56841;55.964;37.674;2023-04-01T07:31:15;16.80;;;6.13;;
69621;SDS011;56841;55.964;37.674;2023-04-01T07:34:16;10.27;;;4.05;;
69621;SDS011;56841;55.964;37.674;2023-04-01T07:37:15;11.52;;;4.28;;
69621;SDS011;56841;55.964;37.674;2023-04-01T07:50:56;16.25;;;6.45;;
69621;SDS011;56841;55.964;37.674;2023-04-01T08:07:27;16.92;;;7.30;;
69621;SDS011;56841;55.964;37.674;2023-04-01T08:16:41;10.20;;;4.80;;
69621;SDS011;56841;55.964;37.674;2023-04-01T08:25:28;14.30;;;6.65;;
69621;SDS011;56841;55.964;37.674;2023-04-01T08:28:00;16.48;;;7.03;;
69621;SDS011;56841;55.964;37.674;2023-04-01T08:30:53;18.73;;;7.88;;
69621;SDS011;56841;55.964;37.674;2023-04-01T08:33:27;14.68;;;6.95;;
69621;SDS011;56841;55.964;37.674;2023-04-01T08:38:46;15.30;;;6.85;;
69621;SDS011;56841;55.964;37.674;2023-04-01T08:41:33;16.60;;;7.80;;
69621;SDS011;56841;55.964;37.674;2023-04-01T08:44:24;18.42;;;7.25;;
69621;SDS011;56841;55.964;37.674;2023-04-01T08:52:30;10.63;;;4.28;;
69621;SDS011;56841;55.964;37.674;2023-04-01T09:03:44;18.52;;;7.93;;
69621;SDS011;56841;55.964;37.674;2023-04-01T09:09:31;13.05;;;5.70;;
69621;SDS011;56841;55.964;37.674;2023-04-01T09:28:50;14.00;;;4.80;;
69621;SDS011;56841;55.964;37.674;2023-04-01T09:40:17;16.02;;;6.60;;
69621;SDS011;56841;55.964;37.674;2023-04-01T09:43:16;16.30;;;7.35;;
69621;SDS011;56841;55.964;37.674;2023-04-01T09:46:22;17.17;;;7.53;;
69621;SDS011;56841;55.964;37.674;2023-04-01T09:56:13;17.35;;;8.10;;
69621;SDS011;56841;55.964;37.674;2023-04-01T10:06:57;19.75;;;10.32;;
69621;SDS011;56841;55.964;37.674;2023-04-01T10:12:45;18.08;;;7.00;;
69621;SDS011;56841;55.964;37.674;2023-04-01T10:15:33;19.25;;;7.35;;
69621;SDS011;56841;55.964;37.674;2023-04-01T10:32:50;11.38;;;4.30;;
69621;SDS011;56841;55.964;37.674;2023-04-01T10:35:49;13.70;;;5.30;;
69621;SDS011;56841;55.964;37.674;2023-04-01T10:50:24;9.25;;;3.92;;
69621;SDS011;56841;55.964;37.674;2023-04-01T10:56:29;11.63;;;4.45;;
69621;SDS011;56841;55.964;37.674;2023-04-01T11:22:40;16.70;;;6.20;;
69621;SDS011;56841;55.964;37.674;2023-04-01T11:33:49;11.20;;;5.03;;
69621;SDS011;56841;55.964;37.674;2023-04-01T11:45:35;6.55;;;3.13;;
69621;SDS011;56841;55.964;37.674;2023-04-01T11:50:59;14.02;;;5.88;;
69621;SDS011;56841;55.964;37.674;2023-04-01T12:02:11;11.50;;;4.20;;
69621;SDS011;56841;55.964;37.674;2023-04-01T12:04:49;10.18;;;4.25;;
69621;SDS011;56841;55.964;37.674;2023-04-01T12:12:40;9.93;;;4.00;;
69621;SDS011;56841;55.964;37.674;2023-04-01T12:15:32;8.75;;;3.17;;
69621;SDS011;56841;55.964;37.674;2023-04-01T12:18:21;7.90;;;3.72;;
69621;SDS011;56841;55.964;37.674;2023-04-01T12:20:50;9.35;;;3.72;;
69621;SDS011;56841;55.964;37.674;2023-04-01T12:32:22;6.85;;;3.38;;
69621;SDS011;56841;55.964;37.674;2023-04-01T12:38:20;11.85;;;3.72;;
69621;SDS011;56841;55.964;37.674;2023-04-01T12:41:18;14.80;;;4.57;;
69621;SDS011;56841;55.964;37.674;2023-04-01T12:46:31;12.10;;;4.50;;
69621;SDS011;56841;55.964;37.674;2023-04-01T13:16:37;9.73;;;4.53;;
69621;SDS011;56841;55.964;37.674;2023-04-01T13:19:21;13.20;;;4.30;;
69621;SDS011;56841;55.964;37.674;2023-04-01T13:25:06;10.90;;;3.35;;
69621;SDS011;56841;55.964;37.674;2023-04-01T13:27:44;7.97;;;3.08;;
69621;SDS011;56841;55.964;37.674;2023-04-01T13:44:41;9.55;;;2.90;;
69621;SDS011;56841;55.964;37.674;2023-04-01T13:58:36;11.82;;;3.55;;
69621;SDS011;56841;55.964;37.674;2023-04-01T14:10:23;12.65;;;3.70;;
69621;SDS011;56841;55.964;37.674;2023-04-01T14:13:30;11.70;;;3.88;;
69621;SDS011;56841;55.964;37.674;2023-04-01T14:16:11;10.55;;;4.50;;
69621;SDS011;56841;55.964;37.674;2023-04-01T14:27:24;11.02;;;4.15;;
69621;SDS011;56841;55.964;37.674;2023-04-01T14:33:11;12.88;;;4.75;;
69621;SDS011;56841;55.964;37.674;2023-04-01T14:35:57;12.23;;;5.20;;
69621;SDS011;56841;55.964;37.674;2023-04-01T14:38:37;15.18;;;4.72;;
69621;SDS011;56841;55.964;37.674;2023-04-01T14:49:32;10.82;;;4.68;;
69621;SDS011;56841;55.964;37.674;2023-04-01T14:52:09;12.30;;;3.55;;
69621;SDS011;56841;55.964;37.674;2023-04-01T14:54:42;17.00;;;4.43;;
69621;SDS011;56841;55.964;37.674;2023-04-01T14:57:14;11.82;;;4.32;;
69621;SDS011;56841;55.964;37.674;2023-04-01T14:59:51;11.73;;;4.57;;
69621;SDS011;56841;55.964;37.674;2023-04-01T15:05:32;12.15;;;4.78;;
69621;SDS011;56841;55.964;37.674;2023-04-01T15:17:15;12.55;;;3.90;;
69621;SDS011;56841;55.964;37.674;2023-04-01T15:23:11;11.13;;;4.28;;
69621;SDS011;56841;55.964;37.674;2023-04-01T15:29:20;10.45;;;4.85;;
69621;SDS011;56841;55.964;37.674;2023-04-01T15:31:42;11.95;;;4.40;;
69621;SDS011;56841;55.964;37.674;2023-04-01T15:39:39;6.75;;;2.92;;
69621;SDS011;56841;55.964;37.674;2023-04-01T15:42:19;10.48;;;4.60;;
69621;SDS011;56841;55.964;37.674;2023-04-01T15:45:13;12.93;;;5.40;;
69621;SDS011;56841;55.964;37.674;2023-04-01T15:47:52;11.48;;;4.47;;
69621;SDS011;56841;55.964;37.674;2023-04-01T15:50:54;12.18;;;5.30;;
69621;SDS011;56841;55.964;37.674;2023-04-01T15:53:44;13.77;;;5.55;;
69621;SDS011;56841;55.964;37.674;2023-04-01T16:02:21;13.43;;;5.88;;
69621;SDS011;56841;55.964;37.674;2023-04-01T16:05:09;15.27;;;6.85;;
69621;SDS011;56841;55.964;37.674;2023-04-01T16:08:11;18.77;;;7.65;;
69621;SDS011;56841;55.964;37.674;2023-04-01T16:10:44;15.70;;;6.78;;
69621;SDS011;56841;55.964;37.674;2023-04-01T16:13:28;16.05;;;6.75;;
69621;SDS011;56841;55.964;37.674;2023-04-01T16:21:53;18.77;;;7.63;;
69621;SDS011;56841;55.964;37.674;2023-04-01T16:27:35;21.48;;;9.20;;
69621;SDS011;56841;55.964;37.674;2023-04-01T16:35:49;18.60;;;7.30;;
69621;SDS011;56841;55.964;37.674;2023-04-01T16:41:05;14.43;;;6.07;;
69621;SDS011;56841;55.964;37.674;2023-04-01T16:43:56;15.23;;;6.40;;
69621;SDS011;56841;55.964;37.674;2023-04-01T16:46:52;21.73;;;9.70;;
69621;SDS011;56841;55.964;37.674;2023-04-01T16:54:43;22.25;;;9.77;;
69621;SDS011;56841;55.964;37.674;2023-04-01T16:57:18;22.45;;;9.27;;
69621;SDS011;56841;55.964;37.674;2023-04-01T17:05:58;15.07;;;7.00;;
69621;SDS011;56841;55.964;37.674;2023-04-01T17:08:48;18.45;;;8.10;;
69621;SDS011;56841;55.964;37.674;2023-04-01T17:17:07;22.00;;;9.05;;
69621;SDS011;56841;55.964;37.674;2023-04-01T17:33:35;26.92;;;11.73;;
69621;SDS011;56841;55.964;37.674;2023-04-01T17:39:37;23.52;;;10.40;;
69621;SDS011;56841;55.964;37.674;2023-04-01T17:42:09;22.50;;;11.40;;
69621;SDS011;56841;55.964;37.674;2023-04-01T17:44:45;24.13;;;10.52;;
69621;SDS011;56841;55.964;37.674;2023-04-01T17:49:52;25.05;;;11.15;;
69621;SDS011;56841;55.964;37.674;2023-04-01T17:52:39;23.58;;;10.95;;
69621;SDS011;56841;55.964;37.674;2023-04-01T18:00:19;26.33;;;10.95;;
69621;SDS011;56841;55.964;37.674;2023-04-01T18:03:13;30.00;;;12.05;;
69621;SDS011;56841;55.964;37.674;2023-04-01T18:05:51;27.48;;;12.05;;
69621;SDS011;56841;55.964;37.674;2023-04-01T18:11:19;25.80;;;11.48;;
69621;SDS011;56841;55.964;37.674;2023-04-01T18:16:59;18.17;;;6.90;;
69621;SDS011;56841;55.964;37.674;2023-04-01T18:25:24;16.15;;;7.55;;
69621;SDS011;56841;55.964;37.674;2023-04-01T18:38:52;21.13;;;7.70;;
69621;SDS011;56841;55.964;37.674;2023-04-01T18:44:23;18.35;;;8.02;;
69621;SDS011;56841;55.964;37.674;2023-04-01T18:46:59;16.15;;;7.78;;
69621;SDS011;56841;55.964;37.674;2023-04-01T18:50:21;15.63;;;6.75;;
69621;SDS011;56841;55.964;37.674;2023-04-01T18:52:46;14.20;;;5.50;;
69621;SDS011;56841;55.964;37.674;2023-04-01T18:57:49;17.45;;;6.32;;
69621;SDS011;56841;55.964;37.674;2023-04-01T19:02:51;14.20;;;6.72;;
69621;SDS011;56841;55.964;37.674;2023-04-01T19:05:42;13.68;;;5.68;;
69621;SDS011;56841;55.964;37.674;2023-04-01T19:08:28;10.35;;;4.68;;
69621;SDS011;56841;55.964;37.674;2023-04-01T19:19:06;19.27;;;7.78;;
69621;SDS011;56841;55.964;37.674;2023-04-01T19:30:17;16.15;;;6.22;;
69621;SDS011;56841;55.964;37.674;2023-04-01T19:32:49;18.20;;;7.90;;
69621;SDS011;56841;55.964;37.674;2023-04-01T19:35:42;14.63;;;6.70;;
69621;SDS011;56841;55.964;37.674;2023-04-01T19:51:34;14.15;;;5.80;;
69621;SDS011;56841;55.964;37.674;2023-04-01T20:02:26;14.02;;;6.25;;
69621;SDS011;56841;55.964;37.674;2023-04-01T20:05:25;10.93;;;5.50;;
69621;SDS011;56841;55.964;37.674;2023-04-01T20:08:20;17.48;;;6.60;;
69621;SDS011;56841;55.964;37.674;2023-04-01T20:10:58;21.05;;;9.05;;
69621;SDS011;56841;55.964;37.674;2023-04-01T20:21:56;22.25;;;8.57;;
69621;SDS011;56841;55.964;37.674;2023-04-01T20:27:09;24.90;;;10.32;;
69621;SDS011;56841;55.964;37.674;2023-04-01T20:41:06;23.73;;;8.95;;
69621;SDS011;56841;55.964;37.674;2023-04-01T20:44:03;28.42;;;10.77;;
69621;SDS011;56841;55.964;37.674;2023-04-01T20:46:44;22.90;;;8.60;;
69621;SDS011;56841;55.964;37.674;2023-04-01T20:52:06;24.45;;;9.63;;
69621;SDS011;56841;55.964;37.674;2023-04-01T20:57:44;24.10;;;9.82;;
69621;SDS011;56841;55.964;37.674;2023-04-01T21:11:22;23.20;;;9.68;;
69621;SDS011;56841;55.964;37.674;2023-04-01T21:16:27;22.88;;;9.70;;
69621;SDS011;56841;55.964;37.674;2023-04-01T21:41:28;23.85;;;10.43;;
69621;SDS011;56841;55.964;37.674;2023-04-01T22:07:48;22.50;;;9.38;;
69621;SDS011;56841;55.964;37.674;2023-04-01T22:13:12;22.85;;;9.13;;
69621;SDS011;56841;55.964;37.674;2023-04-01T22:18:31;22.23;;;9.32;;
69621;SDS011;56841;55.964;37.674;2023-04-01T22:26:38;21.23;;;9.80;;
69621;SDS011;56841;55.964;37.674;2023-04-01T22:31:38;21.73;;;8.77;;
69621;SDS011;56841;55.964;37.674;2023-04-01T22:37:08;22.23;;;8.73;;
69621;SDS011;56841;55.964;37.674;2023-04-01T22:42:43;22.75;;;8.98;;
69621;SDS011;56841;55.964;37.674;2023-04-01T22:55:51;21.27;;;8.35;;
69621;SDS011;56841;55.964;37.674;2023-04-01T22:58:21;19.70;;;8.98;;
69621;SDS011;56841;55.964;37.674;2023-04-01T23:00:56;23.15;;;9.10;;
69621;SDS011;56841;55.964;37.674;2023-04-01T23:06:01;23.10;;;9.52;;
69621;SDS011;56841;55.964;37.674;2023-04-01T23:11:27;26.23;;;9.93;;
69621;SDS011;56841;55.964;37.674;2023-04-01T23:16:47;23.58;;;9.45;;
69621;SDS011;56841;55.964;37.674;2023-04-01T23:19:41;22.13;;;8.93;;
69621;SDS011;56841;55.964;37.674;2023-04-01T23:23:05;25.25;;;9.40;;
69621;SDS011;56841;55.964;37.674;2023-04-01T23:27:57;25.15;;;10.48;;
69621;SDS011;56841;55.964;37.674;2023-04-01T23:33:10;23.20;;;9.70;;
69621;SDS011;56841;55.964;37.674;2023-04-01T23:38:20;28.05;;;10.43;;
69621;SDS011;56841;55.964;37.674;2023-04-01T23:40:50;22.50;;;8.80;;
69621;SDS011;56841;55.964;37.674;2023-04-01T23:43:23;27.38;;;10.45;;
69621;SDS011;56841;55.964;37.674;2023-04-01T23:45:56;24.25;;;11.10;;
69621;SDS011;56841;55.964;37.674;2023-04-01T23:48:26;28.30;;;11.25;;
69621;SDS011;56841;55.964;37.674;2023-04-01T23:50:55;25.17;;;10.35;;
69621;SDS011;56841;55.964;37.674;2023-04-01T23:53:23;25.00;;;10.25;;
69621;SDS011;56841;55.964;37.674;2023-04-01T23:55:53;28.60;;;11.20;;
69621;SDS011;56841;55.964;37.674;2023-04-01T23:58:54;20.90;;;7.50;;
